sensor_id;sensor_type;location;lat;lon;timestamp;P1;durP1;ratioP1;P2;durP2;ratioP2
42866;SDS011;39461;40.948;73.006;2022-08-24T00:00:36;17.27;;;4.85;;
42866;SDS011;39461;40.948;73.006;2022-08-24T00:03:09;24.83;;;4.70;;
42866;SDS011;39461;40.948;73.006;2022-08-24T00:05:44;15.98;;;4.25;;
42866;SDS011;39461;40.948;73.006;2022-08-24T00:08:19;19.90;;;5.10;;
42866;SDS011;39461;40.948;73.006;2022-08-24T00:10:52;19.25;;;5.45;;
42866;SDS011;39461;40.948;73.006;2022-08-24T00:13:26;24.23;;;5.45;;
42866;SDS011;39461;40.948;73.006;2022-08-24T00:15:59;22.30;;;5.25;;
42866;SDS011;39461;40.948;73.006;2022-08-24T00:18:30;21.85;;;5.32;;
42866;SDS011;39461;40.948;73.006;2022-08-24T00:21:04;22.60;;;6.25;;
42866;SDS011;39461;40.948;73.006;2022-08-24T00:23:44;22.55;;;5.72;;
42866;SDS011;39461;40.948;73.006;2022-08-24T00:29:21;19.80;;;4.90;;
42866;SDS011;39461;40.948;73.006;2022-08-24T00:31:54;29.02;;;5.38;;
42866;SDS011;39461;40.948;73.006;2022-08-24T00:34:27;25.15;;;4.75;;
42866;SDS011;39461;40.948;73.006;2022-08-24T00:37:00;20.17;;;4.63;;
42866;SDS011;39461;40.948;73.006;2022-08-24T00:39:33;28.75;;;5.22;;
42866;SDS011;39461;40.948;73.006;2022-08-24T00:42:06;26.05;;;4.93;;
42866;SDS011;39461;40.948;73.006;2022-08-24T00:44:42;26.50;;;4.55;;
42866;SDS011;39461;40.948;73.006;2022-08-24T00:47:21;23.70;;;4.40;;
42866;SDS011;39461;40.948;73.006;2022-08-24T00:49:58;19.88;;;4.20;;
42866;SDS011;39461;40.948;73.006;2022-08-24T00:53:12;24.23;;;4.50;;
42866;SDS011;39461;40.948;73.006;2022-08-24T00:56:11;22.63;;;5.35;;
42866;SDS011;39461;40.948;73.006;2022-08-24T00:58:56;19.88;;;4.50;;
42866;SDS011;39461;40.948;73.006;2022-08-24T01:01:35;23.35;;;5.13;;
42866;SDS011;39461;40.948;73.006;2022-08-24T01:04:14;26.98;;;4.90;;
42866;SDS011;39461;40.948;73.006;2022-08-24T01:06:52;28.77;;;6.28;;
42866;SDS011;39461;40.948;73.006;2022-08-24T01:09:32;31.55;;;5.75;;
42866;SDS011;39461;40.948;73.006;2022-08-24T01:12:05;24.38;;;5.47;;
42866;SDS011;39461;40.948;73.006;2022-08-24T01:14:37;23.98;;;6.10;;
42866;SDS011;39461;40.948;73.006;2022-08-24T01:17:11;27.52;;;5.78;;
42866;SDS011;39461;40.948;73.006;2022-08-24T01:20:03;25.05;;;5.40;;
42866;SDS011;39461;40.948;73.006;2022-08-24T01:25:33;23.75;;;5.03;;
42866;SDS011;39461;40.948;73.006;2022-08-24T01:28:09;23.73;;;4.97;;
42866;SDS011;39461;40.948;73.006;2022-08-24T01:30:49;29.15;;;5.45;;
42866;SDS011;39461;40.948;73.006;2022-08-24T01:33:29;23.75;;;5.25;;
42866;SDS011;39461;40.948;73.006;2022-08-24T01:36:06;24.58;;;5.80;;
42866;SDS011;39461;40.948;73.006;2022-08-24T01:38:50;23.45;;;5.20;;
42866;SDS011;39461;40.948;73.006;2022-08-24T01:41:25;25.75;;;5.93;;
42866;SDS011;39461;40.948;73.006;2022-08-24T01:43:58;30.92;;;6.93;;
42866;SDS011;39461;40.948;73.006;2022-08-24T01:46:30;25.48;;;6.40;;
42866;SDS011;39461;40.948;73.006;2022-08-24T01:49:03;27.60;;;6.78;;
42866;SDS011;39461;40.948;73.006;2022-08-24T01:51:41;30.20;;;6.70;;
42866;SDS011;39461;40.948;73.006;2022-08-24T01:54:15;32.85;;;7.63;;
42866;SDS011;39461;40.948;73.006;2022-08-24T01:56:42;32.42;;;6.30;;
42866;SDS011;39461;40.948;73.006;2022-08-24T01:59:16;33.03;;;6.40;;
42866;SDS011;39461;40.948;73.006;2022-08-24T02:01:58;29.70;;;6.60;;
42866;SDS011;39461;40.948;73.006;2022-08-24T02:04:35;26.75;;;6.53;;
42866;SDS011;39461;40.948;73.006;2022-08-24T02:07:10;33.05;;;6.68;;
42866;SDS011;39461;40.948;73.006;2022-08-24T02:09:49;30.80;;;6.75;;
42866;SDS011;39461;40.948;73.006;2022-08-24T02:12:22;31.30;;;8.48;;
42866;SDS011;39461;40.948;73.006;2022-08-24T02:14:54;34.72;;;8.57;;
42866;SDS011;39461;40.948;73.006;2022-08-24T02:17:29;32.35;;;7.75;;
42866;SDS011;39461;40.948;73.006;2022-08-24T02:20:05;40.30;;;9.63;;
42866;SDS011;39461;40.948;73.006;2022-08-24T02:22:40;34.35;;;9.43;;
42866;SDS011;39461;40.948;73.006;2022-08-24T02:25:16;35.33;;;7.85;;
42866;SDS011;39461;40.948;73.006;2022-08-24T02:27:51;36.22;;;8.35;;
42866;SDS011;39461;40.948;73.006;2022-08-24T02:30:25;25.90;;;7.75;;
42866;SDS011;39461;40.948;73.006;2022-08-24T02:32:59;30.55;;;8.48;;
42866;SDS011;39461;40.948;73.006;2022-08-24T02:35:34;49.22;;;10.07;;
42866;SDS011;39461;40.948;73.006;2022-08-24T02:38:09;42.30;;;10.90;;
42866;SDS011;39461;40.948;73.006;2022-08-24T02:40:46;33.67;;;10.18;;
42866;SDS011;39461;40.948;73.006;2022-08-24T02:43:21;40.95;;;10.20;;
42866;SDS011;39461;40.948;73.006;2022-08-24T02:45:56;38.03;;;9.68;;
42866;SDS011;39461;40.948;73.006;2022-08-24T02:48:31;29.85;;;8.60;;
42866;SDS011;39461;40.948;73.006;2022-08-24T02:54:06;44.75;;;11.18;;
42866;SDS011;39461;40.948;73.006;2022-08-24T02:56:42;32.03;;;9.10;;
42866;SDS011;39461;40.948;73.006;2022-08-24T02:59:17;43.92;;;10.15;;
42866;SDS011;39461;40.948;73.006;2022-08-24T03:01:51;36.22;;;8.60;;
42866;SDS011;39461;40.948;73.006;2022-08-24T03:04:24;47.45;;;9.88;;
42866;SDS011;39461;40.948;73.006;2022-08-24T03:06:59;30.60;;;8.73;;
42866;SDS011;39461;40.948;73.006;2022-08-24T03:09:32;30.83;;;8.23;;
42866;SDS011;39461;40.948;73.006;2022-08-24T03:12:07;35.78;;;7.90;;
42866;SDS011;39461;40.948;73.006;2022-08-24T03:14:40;48.17;;;15.00;;
42866;SDS011;39461;40.948;73.006;2022-08-24T03:17:14;45.97;;;14.95;;
42866;SDS011;39461;40.948;73.006;2022-08-24T03:19:48;29.38;;;11.70;;
42866;SDS011;39461;40.948;73.006;2022-08-24T03:22:22;28.17;;;10.80;;
42866;SDS011;39461;40.948;73.006;2022-08-24T03:24:54;31.98;;;10.88;;
42866;SDS011;39461;40.948;73.006;2022-08-24T03:27:30;49.63;;;14.32;;
42866;SDS011;39461;40.948;73.006;2022-08-24T03:30:04;38.08;;;12.50;;
42866;SDS011;39461;40.948;73.006;2022-08-24T03:32:40;42.00;;;12.70;;
42866;SDS011;39461;40.948;73.006;2022-08-24T03:35:10;37.80;;;13.57;;
42866;SDS011;39461;40.948;73.006;2022-08-24T03:37:47;32.35;;;10.05;;
42866;SDS011;39461;40.948;73.006;2022-08-24T03:40:22;32.50;;;8.80;;
42866;SDS011;39461;40.948;73.006;2022-08-24T03:42:57;34.50;;;8.45;;
42866;SDS011;39461;40.948;73.006;2022-08-24T03:45:32;23.05;;;7.22;;
42866;SDS011;39461;40.948;73.006;2022-08-24T03:48:06;32.33;;;7.28;;
42866;SDS011;39461;40.948;73.006;2022-08-24T03:50:43;21.02;;;7.03;;
42866;SDS011;39461;40.948;73.006;2022-08-24T03:53:12;26.15;;;8.38;;
42866;SDS011;39461;40.948;73.006;2022-08-24T03:55:38;23.52;;;7.20;;
42866;SDS011;39461;40.948;73.006;2022-08-24T03:58:12;29.50;;;7.38;;
42866;SDS011;39461;40.948;73.006;2022-08-24T04:00:47;29.58;;;7.25;;
42866;SDS011;39461;40.948;73.006;2022-08-24T04:03:22;23.55;;;7.47;;
42866;SDS011;39461;40.948;73.006;2022-08-24T04:05:49;30.58;;;7.75;;
42866;SDS011;39461;40.948;73.006;2022-08-24T04:08:20;51.90;;;9.30;;
42866;SDS011;39461;40.948;73.006;2022-08-24T04:10:59;24.05;;;7.38;;
42866;SDS011;39461;40.948;73.006;2022-08-24T04:13:33;31.23;;;7.20;;
42866;SDS011;39461;40.948;73.006;2022-08-24T04:16:09;25.67;;;6.93;;
42866;SDS011;39461;40.948;73.006;2022-08-24T04:21:44;29.95;;;9.00;;
42866;SDS011;39461;40.948;73.006;2022-08-24T04:24:18;28.33;;;8.55;;
42866;SDS011;39461;40.948;73.006;2022-08-24T04:26:51;22.95;;;8.05;;
42866;SDS011;39461;40.948;73.006;2022-08-24T04:29:24;35.75;;;8.32;;
42866;SDS011;39461;40.948;73.006;2022-08-24T04:31:57;34.50;;;9.23;;
42866;SDS011;39461;40.948;73.006;2022-08-24T04:34:32;35.70;;;8.57;;
42866;SDS011;39461;40.948;73.006;2022-08-24T04:37:01;29.15;;;9.80;;
42866;SDS011;39461;40.948;73.006;2022-08-24T04:39:29;45.10;;;9.88;;
42866;SDS011;39461;40.948;73.006;2022-08-24T04:42:06;31.05;;;9.35;;
42866;SDS011;39461;40.948;73.006;2022-08-24T04:44:41;22.50;;;7.82;;
42866;SDS011;39461;40.948;73.006;2022-08-24T04:47:14;33.47;;;9.00;;
42866;SDS011;39461;40.948;73.006;2022-08-24T04:49:47;29.42;;;9.07;;
42866;SDS011;39461;40.948;73.006;2022-08-24T04:52:20;35.67;;;8.88;;
42866;SDS011;39461;40.948;73.006;2022-08-24T04:54:53;25.45;;;8.38;;
42866;SDS011;39461;40.948;73.006;2022-08-24T04:57:28;34.03;;;8.32;;
42866;SDS011;39461;40.948;73.006;2022-08-24T05:00:02;32.30;;;8.80;;
42866;SDS011;39461;40.948;73.006;2022-08-24T05:02:35;32.88;;;8.88;;
42866;SDS011;39461;40.948;73.006;2022-08-24T05:05:11;40.67;;;8.95;;
42866;SDS011;39461;40.948;73.006;2022-08-24T05:07:44;32.95;;;8.90;;
42866;SDS011;39461;40.948;73.006;2022-08-24T05:10:17;33.20;;;9.13;;
42866;SDS011;39461;40.948;73.006;2022-08-24T05:12:51;29.35;;;9.43;;
42866;SDS011;39461;40.948;73.006;2022-08-24T05:15:24;28.10;;;8.15;;
42866;SDS011;39461;40.948;73.006;2022-08-24T05:17:59;28.27;;;8.43;;
42866;SDS011;39461;40.948;73.006;2022-08-24T05:20:40;31.20;;;8.95;;
42866;SDS011;39461;40.948;73.006;2022-08-24T05:23:19;40.70;;;8.70;;
42866;SDS011;39461;40.948;73.006;2022-08-24T05:26:02;32.22;;;9.27;;
42866;SDS011;39461;40.948;73.006;2022-08-24T05:28:38;31.20;;;8.32;;
42866;SDS011;39461;40.948;73.006;2022-08-24T05:31:20;40.88;;;8.98;;
42866;SDS011;39461;40.948;73.006;2022-08-24T05:33:57;44.75;;;8.95;;
42866;SDS011;39461;40.948;73.006;2022-08-24T05:36:33;28.48;;;9.05;;
42866;SDS011;39461;40.948;73.006;2022-08-24T05:39:12;39.05;;;9.15;;
42866;SDS011;39461;40.948;73.006;2022-08-24T05:41:46;32.83;;;8.75;;
42866;SDS011;39461;40.948;73.006;2022-08-24T05:44:20;35.40;;;9.13;;
42866;SDS011;39461;40.948;73.006;2022-08-24T05:46:57;42.22;;;9.48;;
42866;SDS011;39461;40.948;73.006;2022-08-24T05:49:29;33.95;;;8.07;;
42866;SDS011;39461;40.948;73.006;2022-08-24T05:52:06;30.33;;;8.52;;
42866;SDS011;39461;40.948;73.006;2022-08-24T05:54:44;33.70;;;9.23;;
42866;SDS011;39461;40.948;73.006;2022-08-24T05:57:18;31.60;;;8.40;;
42866;SDS011;39461;40.948;73.006;2022-08-24T05:59:57;28.38;;;9.50;;
42866;SDS011;39461;40.948;73.006;2022-08-24T06:02:40;29.05;;;7.97;;
42866;SDS011;39461;40.948;73.006;2022-08-24T06:05:10;35.33;;;9.48;;
42866;SDS011;39461;40.948;73.006;2022-08-24T06:10:47;27.92;;;9.10;;
42866;SDS011;39461;40.948;73.006;2022-08-24T06:13:20;36.10;;;9.43;;
42866;SDS011;39461;40.948;73.006;2022-08-24T06:16:04;40.85;;;9.52;;
42866;SDS011;39461;40.948;73.006;2022-08-24T06:18:41;28.77;;;9.55;;
42866;SDS011;39461;40.948;73.006;2022-08-24T06:24:15;26.13;;;8.50;;
42866;SDS011;39461;40.948;73.006;2022-08-24T06:26:49;33.25;;;9.43;;
42866;SDS011;39461;40.948;73.006;2022-08-24T06:29:35;34.88;;;8.98;;
42866;SDS011;39461;40.948;73.006;2022-08-24T06:32:09;29.17;;;8.05;;
42866;SDS011;39461;40.948;73.006;2022-08-24T06:34:44;30.90;;;8.80;;
42866;SDS011;39461;40.948;73.006;2022-08-24T06:40:12;32.10;;;9.65;;
42866;SDS011;39461;40.948;73.006;2022-08-24T06:42:45;33.63;;;9.32;;
42866;SDS011;39461;40.948;73.006;2022-08-24T06:45:21;35.35;;;9.15;;
42866;SDS011;39461;40.948;73.006;2022-08-24T06:47:53;45.50;;;10.30;;
42866;SDS011;39461;40.948;73.006;2022-08-24T06:50:26;29.77;;;9.48;;
42866;SDS011;39461;40.948;73.006;2022-08-24T06:53:00;36.65;;;9.27;;
42866;SDS011;39461;40.948;73.006;2022-08-24T06:55:36;28.73;;;9.48;;
42866;SDS011;39461;40.948;73.006;2022-08-24T06:58:12;43.53;;;9.20;;
42866;SDS011;39461;40.948;73.006;2022-08-24T07:00:47;42.40;;;9.60;;
42866;SDS011;39461;40.948;73.006;2022-08-24T07:03:21;31.35;;;9.18;;
42866;SDS011;39461;40.948;73.006;2022-08-24T07:05:52;30.92;;;7.78;;
42866;SDS011;39461;40.948;73.006;2022-08-24T07:08:28;38.53;;;9.82;;
42866;SDS011;39461;40.948;73.006;2022-08-24T07:11:03;38.60;;;9.13;;
42866;SDS011;39461;40.948;73.006;2022-08-24T07:13:39;27.67;;;8.88;;
42866;SDS011;39461;40.948;73.006;2022-08-24T07:16:13;31.23;;;8.68;;
42866;SDS011;39461;40.948;73.006;2022-08-24T07:18:48;41.13;;;9.23;;
42866;SDS011;39461;40.948;73.006;2022-08-24T07:21:28;47.25;;;11.13;;
42866;SDS011;39461;40.948;73.006;2022-08-24T07:24:04;36.15;;;9.65;;
42866;SDS011;39461;40.948;73.006;2022-08-24T07:26:40;35.00;;;8.80;;
42866;SDS011;39461;40.948;73.006;2022-08-24T07:29:15;47.58;;;9.75;;
42866;SDS011;39461;40.948;73.006;2022-08-24T07:31:50;33.50;;;9.73;;
42866;SDS011;39461;40.948;73.006;2022-08-24T07:34:24;48.60;;;10.05;;
42866;SDS011;39461;40.948;73.006;2022-08-24T07:36:58;44.38;;;10.05;;
42866;SDS011;39461;40.948;73.006;2022-08-24T07:39:31;33.20;;;9.20;;
42866;SDS011;39461;40.948;73.006;2022-08-24T07:42:06;56.40;;;13.80;;
42866;SDS011;39461;40.948;73.006;2022-08-24T07:44:41;43.28;;;9.15;;
42866;SDS011;39461;40.948;73.006;2022-08-24T07:47:14;41.50;;;8.82;;
42866;SDS011;39461;40.948;73.006;2022-08-24T07:49:49;37.30;;;9.77;;
42866;SDS011;39461;40.948;73.006;2022-08-24T07:52:22;39.28;;;9.60;;
42866;SDS011;39461;40.948;73.006;2022-08-24T07:54:48;37.75;;;10.02;;
42866;SDS011;39461;40.948;73.006;2022-08-24T07:57:15;38.08;;;9.32;;
42866;SDS011;39461;40.948;73.006;2022-08-24T07:59:50;32.20;;;9.73;;
42866;SDS011;39461;40.948;73.006;2022-08-24T08:02:24;23.65;;;8.25;;
42866;SDS011;39461;40.948;73.006;2022-08-24T08:07:56;41.85;;;9.70;;
42866;SDS011;39461;40.948;73.006;2022-08-24T08:10:29;42.58;;;8.43;;
42866;SDS011;39461;40.948;73.006;2022-08-24T08:13:01;34.90;;;7.32;;
42866;SDS011;39461;40.948;73.006;2022-08-24T08:15:36;41.45;;;8.38;;
42866;SDS011;39461;40.948;73.006;2022-08-24T08:18:07;35.30;;;8.23;;
42866;SDS011;39461;40.948;73.006;2022-08-24T08:20:41;35.67;;;8.68;;
42866;SDS011;39461;40.948;73.006;2022-08-24T08:23:08;27.98;;;6.80;;
42866;SDS011;39461;40.948;73.006;2022-08-24T08:26:00;41.35;;;7.50;;
42866;SDS011;39461;40.948;73.006;2022-08-24T08:28:33;36.63;;;8.93;;
42866;SDS011;39461;40.948;73.006;2022-08-24T08:31:07;39.75;;;8.43;;
42866;SDS011;39461;40.948;73.006;2022-08-24T08:33:42;35.47;;;7.47;;
42866;SDS011;39461;40.948;73.006;2022-08-24T08:36:17;44.97;;;8.93;;
42866;SDS011;39461;40.948;73.006;2022-08-24T08:38:54;44.97;;;8.48;;
42866;SDS011;39461;40.948;73.006;2022-08-24T08:44:32;44.15;;;7.57;;
42866;SDS011;39461;40.948;73.006;2022-08-24T08:56:07;35.65;;;7.97;;
42866;SDS011;39461;40.948;73.006;2022-08-24T09:12:48;40.40;;;7.28;;
42866;SDS011;39461;40.948;73.006;2022-08-24T09:21:48;39.67;;;7.55;;
42866;SDS011;39461;40.948;73.006;2022-08-24T09:30:15;46.40;;;8.35;;
42866;SDS011;39461;40.948;73.006;2022-08-24T09:36:02;30.33;;;6.03;;
42866;SDS011;39461;40.948;73.006;2022-08-24T09:38:48;51.88;;;8.27;;
42866;SDS011;39461;40.948;73.006;2022-08-24T09:47:36;38.90;;;8.00;;
42866;SDS011;39461;40.948;73.006;2022-08-24T09:58:59;38.75;;;7.30;;
42866;SDS011;39461;40.948;73.006;2022-08-24T10:17:02;37.17;;;7.75;;
42866;SDS011;39461;40.948;73.006;2022-08-24T10:31:03;52.72;;;8.68;;
42866;SDS011;39461;40.948;73.006;2022-08-24T10:36:45;30.75;;;7.75;;
42866;SDS011;39461;40.948;73.006;2022-08-24T10:52:12;41.95;;;7.97;;
42866;SDS011;39461;40.948;73.006;2022-08-24T10:55:10;34.97;;;7.63;;
42866;SDS011;39461;40.948;73.006;2022-08-24T10:57:59;35.40;;;8.07;;
42866;SDS011;39461;40.948;73.006;2022-08-24T11:00:42;39.03;;;9.80;;
42866;SDS011;39461;40.948;73.006;2022-08-24T11:03:18;40.97;;;7.85;;
42866;SDS011;39461;40.948;73.006;2022-08-24T11:05:55;46.58;;;7.75;;
42866;SDS011;39461;40.948;73.006;2022-08-24T11:08:30;37.53;;;7.70;;
42866;SDS011;39461;40.948;73.006;2022-08-24T11:14:07;40.75;;;7.55;;
42866;SDS011;39461;40.948;73.006;2022-08-24T11:17:16;42.42;;;6.82;;
42866;SDS011;39461;40.948;73.006;2022-08-24T11:19:58;61.20;;;7.47;;
42866;SDS011;39461;40.948;73.006;2022-08-24T11:22:56;44.85;;;7.43;;
42866;SDS011;39461;40.948;73.006;2022-08-24T11:25:36;44.60;;;7.65;;
42866;SDS011;39461;40.948;73.006;2022-08-24T11:28:20;43.13;;;7.38;;
42866;SDS011;39461;40.948;73.006;2022-08-24T11:31:04;45.58;;;7.13;;
42866;SDS011;39461;40.948;73.006;2022-08-24T11:33:49;35.78;;;7.95;;
42866;SDS011;39461;40.948;73.006;2022-08-24T11:36:32;33.17;;;7.78;;
42866;SDS011;39461;40.948;73.006;2022-08-24T11:39:19;41.55;;;7.38;;
42866;SDS011;39461;40.948;73.006;2022-08-24T11:47:44;33.47;;;7.03;;
42866;SDS011;39461;40.948;73.006;2022-08-24T11:53:10;37.78;;;8.00;;
42866;SDS011;39461;40.948;73.006;2022-08-24T11:56:07;49.17;;;8.65;;
42866;SDS011;39461;40.948;73.006;2022-08-24T12:01:56;44.90;;;8.75;;
42866;SDS011;39461;40.948;73.006;2022-08-24T12:13:03;44.60;;;9.65;;
42866;SDS011;39461;40.948;73.006;2022-08-24T12:21:37;29.27;;;8.98;;
42866;SDS011;39461;40.948;73.006;2022-08-24T12:24:11;50.10;;;10.10;;
42866;SDS011;39461;40.948;73.006;2022-08-24T12:29:44;30.75;;;9.95;;
42866;SDS011;39461;40.948;73.006;2022-08-24T12:32:38;46.97;;;9.93;;
42866;SDS011;39461;40.948;73.006;2022-08-24T12:38:02;55.60;;;10.40;;
42866;SDS011;39461;40.948;73.006;2022-08-24T12:40:44;38.78;;;9.98;;
42866;SDS011;39461;40.948;73.006;2022-08-24T12:43:30;50.50;;;10.40;;
42866;SDS011;39461;40.948;73.006;2022-08-24T12:46:05;40.35;;;11.18;;
42866;SDS011;39461;40.948;73.006;2022-08-24T13:00:23;38.03;;;11.25;;
42866;SDS011;39461;40.948;73.006;2022-08-24T13:03:08;36.40;;;10.65;;
42866;SDS011;39461;40.948;73.006;2022-08-24T13:06:26;41.03;;;10.20;;
42866;SDS011;39461;40.948;73.006;2022-08-24T13:11:59;44.10;;;12.48;;
42866;SDS011;39461;40.948;73.006;2022-08-24T13:23:15;46.15;;;14.35;;
42866;SDS011;39461;40.948;73.006;2022-08-24T13:28:46;43.55;;;14.70;;
42866;SDS011;39461;40.948;73.006;2022-08-24T13:31:24;39.17;;;14.80;;
42866;SDS011;39461;40.948;73.006;2022-08-24T13:39:44;44.42;;;12.18;;
42866;SDS011;39461;40.948;73.006;2022-08-24T13:56:31;38.00;;;10.35;;
42866;SDS011;39461;40.948;73.006;2022-08-24T13:59:15;49.35;;;12.38;;
42866;SDS011;39461;40.948;73.006;2022-08-24T14:04:50;52.10;;;13.38;;
42866;SDS011;39461;40.948;73.006;2022-08-24T14:07:24;45.58;;;12.07;;
42866;SDS011;39461;40.948;73.006;2022-08-24T14:13:05;42.20;;;14.68;;
42866;SDS011;39461;40.948;73.006;2022-08-24T14:15:47;107.70;;;44.22;;
42866;SDS011;39461;40.948;73.006;2022-08-24T14:21:49;70.40;;;23.60;;
42866;SDS011;39461;40.948;73.006;2022-08-24T14:24:52;191.77;;;127.05;;
42866;SDS011;39461;40.948;73.006;2022-08-24T14:27:43;109.30;;;51.85;;
42866;SDS011;39461;40.948;73.006;2022-08-24T14:30:43;85.30;;;34.70;;
42866;SDS011;39461;40.948;73.006;2022-08-24T14:33:20;92.38;;;49.13;;
42866;SDS011;39461;40.948;73.006;2022-08-24T14:42:32;70.88;;;32.95;;
42866;SDS011;39461;40.948;73.006;2022-08-24T14:45:10;60.60;;;21.75;;
42866;SDS011;39461;40.948;73.006;2022-08-24T14:48:16;58.15;;;19.77;;
42866;SDS011;39461;40.948;73.006;2022-08-24T14:51:09;60.22;;;19.80;;
42866;SDS011;39461;40.948;73.006;2022-08-24T14:57:07;44.58;;;19.08;;
42866;SDS011;39461;40.948;73.006;2022-08-24T15:08:05;82.78;;;32.00;;
42866;SDS011;39461;40.948;73.006;2022-08-24T15:11:16;82.00;;;35.10;;
42866;SDS011;39461;40.948;73.006;2022-08-24T15:13:55;76.85;;;27.60;;
42866;SDS011;39461;40.948;73.006;2022-08-24T15:25:25;52.75;;;19.45;;
42866;SDS011;39461;40.948;73.006;2022-08-24T15:33:57;49.33;;;17.50;;
42866;SDS011;39461;40.948;73.006;2022-08-24T15:36:31;57.97;;;17.88;;
42866;SDS011;39461;40.948;73.006;2022-08-24T15:39:05;63.05;;;19.23;;
42866;SDS011;39461;40.948;73.006;2022-08-24T15:41:39;55.95;;;17.83;;
42866;SDS011;39461;40.948;73.006;2022-08-24T15:44:15;61.97;;;17.55;;
42866;SDS011;39461;40.948;73.006;2022-08-24T15:47:02;66.68;;;23.65;;
42866;SDS011;39461;40.948;73.006;2022-08-24T15:50:00;56.97;;;17.10;;
42866;SDS011;39461;40.948;73.006;2022-08-24T15:52:40;58.00;;;15.55;;
42866;SDS011;39461;40.948;73.006;2022-08-24T16:03:59;56.10;;;17.75;;
42866;SDS011;39461;40.948;73.006;2022-08-24T16:09:13;61.60;;;18.10;;
42866;SDS011;39461;40.948;73.006;2022-08-24T16:14:47;60.20;;;24.30;;
42866;SDS011;39461;40.948;73.006;2022-08-24T16:20:11;59.50;;;22.15;;
42866;SDS011;39461;40.948;73.006;2022-08-24T16:25:45;72.63;;;22.17;;
42866;SDS011;39461;40.948;73.006;2022-08-24T16:30:58;57.53;;;20.27;;
42866;SDS011;39461;40.948;73.006;2022-08-24T16:33:34;66.60;;;19.70;;
42866;SDS011;39461;40.948;73.006;2022-08-24T16:36:17;67.32;;;19.10;;
42866;SDS011;39461;40.948;73.006;2022-08-24T16:38:51;55.10;;;18.42;;
42866;SDS011;39461;40.948;73.006;2022-08-24T16:41:25;69.78;;;19.42;;
42866;SDS011;39461;40.948;73.006;2022-08-24T16:43:58;57.35;;;18.92;;
42866;SDS011;39461;40.948;73.006;2022-08-24T16:46:25;56.78;;;17.90;;
42866;SDS011;39461;40.948;73.006;2022-08-24T16:48:59;50.80;;;17.98;;
42866;SDS011;39461;40.948;73.006;2022-08-24T16:51:37;55.10;;;18.70;;
42866;SDS011;39461;40.948;73.006;2022-08-24T16:54:11;56.13;;;18.30;;
42866;SDS011;39461;40.948;73.006;2022-08-24T16:56:44;51.47;;;18.58;;
42866;SDS011;39461;40.948;73.006;2022-08-24T16:59:19;63.47;;;17.98;;
42866;SDS011;39461;40.948;73.006;2022-08-24T17:01:58;50.30;;;17.42;;
42866;SDS011;39461;40.948;73.006;2022-08-24T17:04:32;52.80;;;18.30;;
42866;SDS011;39461;40.948;73.006;2022-08-24T17:07:08;68.63;;;20.13;;
42866;SDS011;39461;40.948;73.006;2022-08-24T17:09:46;53.40;;;18.98;;
42866;SDS011;39461;40.948;73.006;2022-08-24T17:12:22;61.45;;;19.08;;
42866;SDS011;39461;40.948;73.006;2022-08-24T17:14:56;50.47;;;18.92;;
42866;SDS011;39461;40.948;73.006;2022-08-24T17:17:30;64.47;;;20.52;;
42866;SDS011;39461;40.948;73.006;2022-08-24T17:20:05;52.22;;;19.85;;
42866;SDS011;39461;40.948;73.006;2022-08-24T17:22:42;55.28;;;19.58;;
42866;SDS011;39461;40.948;73.006;2022-08-24T17:25:17;56.90;;;20.23;;
42866;SDS011;39461;40.948;73.006;2022-08-24T17:27:52;55.05;;;21.73;;
42866;SDS011;39461;40.948;73.006;2022-08-24T17:30:33;48.53;;;18.63;;
42866;SDS011;39461;40.948;73.006;2022-08-24T17:33:07;61.80;;;18.90;;
42866;SDS011;39461;40.948;73.006;2022-08-24T17:35:40;51.15;;;17.08;;
42866;SDS011;39461;40.948;73.006;2022-08-24T17:38:13;59.35;;;19.35;;
42866;SDS011;39461;40.948;73.006;2022-08-24T17:40:48;56.97;;;17.48;;
42866;SDS011;39461;40.948;73.006;2022-08-24T17:43:22;51.00;;;17.90;;
42866;SDS011;39461;40.948;73.006;2022-08-24T17:45:55;40.60;;;16.98;;
42866;SDS011;39461;40.948;73.006;2022-08-24T17:48:30;57.60;;;18.88;;
42866;SDS011;39461;40.948;73.006;2022-08-24T17:51:04;54.63;;;17.23;;
42866;SDS011;39461;40.948;73.006;2022-08-24T17:53:39;54.47;;;17.95;;
42866;SDS011;39461;40.948;73.006;2022-08-24T17:56:06;56.47;;;16.98;;
42866;SDS011;39461;40.948;73.006;2022-08-24T17:58:36;55.97;;;17.00;;
42866;SDS011;39461;40.948;73.006;2022-08-24T18:01:29;53.35;;;17.35;;
42866;SDS011;39461;40.948;73.006;2022-08-24T18:04:05;59.28;;;16.45;;
42866;SDS011;39461;40.948;73.006;2022-08-24T18:06:38;35.63;;;15.23;;
42866;SDS011;39461;40.948;73.006;2022-08-24T18:09:18;48.00;;;16.75;;
42866;SDS011;39461;40.948;73.006;2022-08-24T18:12:01;40.97;;;15.43;;
42866;SDS011;39461;40.948;73.006;2022-08-24T18:14:35;38.08;;;15.57;;
42866;SDS011;39461;40.948;73.006;2022-08-24T18:17:11;56.53;;;16.88;;
42866;SDS011;39461;40.948;73.006;2022-08-24T18:19:48;51.47;;;16.83;;
42866;SDS011;39461;40.948;73.006;2022-08-24T18:22:24;54.03;;;16.35;;
42866;SDS011;39461;40.948;73.006;2022-08-24T18:24:57;54.97;;;15.65;;
42866;SDS011;39461;40.948;73.006;2022-08-24T18:27:30;47.97;;;15.38;;
42866;SDS011;39461;40.948;73.006;2022-08-24T18:33:04;42.10;;;16.50;;
42866;SDS011;39461;40.948;73.006;2022-08-24T18:35:40;53.22;;;17.10;;
42866;SDS011;39461;40.948;73.006;2022-08-24T18:38:15;57.88;;;16.65;;
42866;SDS011;39461;40.948;73.006;2022-08-24T18:40:49;46.83;;;15.73;;
42866;SDS011;39461;40.948;73.006;2022-08-24T18:43:24;53.85;;;15.45;;
42866;SDS011;39461;40.948;73.006;2022-08-24T18:46:00;45.10;;;15.02;;
42866;SDS011;39461;40.948;73.006;2022-08-24T18:48:34;58.72;;;17.10;;
42866;SDS011;39461;40.948;73.006;2022-08-24T18:51:07;45.97;;;14.43;;
42866;SDS011;39461;40.948;73.006;2022-08-24T18:53:55;58.30;;;16.17;;
42866;SDS011;39461;40.948;73.006;2022-08-24T18:56:33;45.92;;;13.25;;
42866;SDS011;39461;40.948;73.006;2022-08-24T18:59:06;53.70;;;15.25;;
42866;SDS011;39461;40.948;73.006;2022-08-24T19:01:46;45.22;;;13.35;;
42866;SDS011;39461;40.948;73.006;2022-08-24T19:04:43;41.00;;;12.38;;
42866;SDS011;39461;40.948;73.006;2022-08-24T19:07:18;45.92;;;12.65;;
42866;SDS011;39461;40.948;73.006;2022-08-24T19:09:51;55.47;;;13.15;;
42866;SDS011;39461;40.948;73.006;2022-08-24T19:12:24;38.10;;;11.88;;
42866;SDS011;39461;40.948;73.006;2022-08-24T19:14:59;30.80;;;10.98;;
42866;SDS011;39461;40.948;73.006;2022-08-24T19:17:34;42.90;;;12.20;;
42866;SDS011;39461;40.948;73.006;2022-08-24T19:20:07;35.58;;;12.05;;
42866;SDS011;39461;40.948;73.006;2022-08-24T19:22:41;57.30;;;12.18;;
42866;SDS011;39461;40.948;73.006;2022-08-24T19:25:22;38.30;;;9.20;;
42866;SDS011;39461;40.948;73.006;2022-08-24T19:28:00;38.40;;;10.40;;
42866;SDS011;39461;40.948;73.006;2022-08-24T19:30:35;33.50;;;8.88;;
42866;SDS011;39461;40.948;73.006;2022-08-24T19:33:11;36.40;;;9.18;;
42866;SDS011;39461;40.948;73.006;2022-08-24T19:35:50;47.95;;;10.90;;
42866;SDS011;39461;40.948;73.006;2022-08-24T19:38:25;45.42;;;10.95;;
42866;SDS011;39461;40.948;73.006;2022-08-24T19:41:01;34.28;;;10.57;;
42866;SDS011;39461;40.948;73.006;2022-08-24T19:43:38;38.38;;;12.15;;